United Tenorio — A8UB9 — position and weather

sailwx.info

Track history (hours):
 
Tides and Currents Weather Stations Pressure Air Temp Water Temp Dewpoint Dewpoint Depression Visibility Wind Speed Wind Dir Waves Ship Positions

United Tenorio

Last reported at 2014-Oct-21 23:33 UTC. Time now 2014-Oct-24 15:31 UTC.
Position N 36°03' W 005°18'.

Length 174 m; draft 10.9 m.

Type: Cargo ship. MMSI: 636091880.

Date/timePositionNaut miles runAvg speedWind from/ knotsBaromVisibWave heightAir tempDewpointWater temp
2014-Oct-21 23:33N 36°03' W 005°18'6 4.3
2014-Oct-21 22:08N 36°08' W 005°22'0 0.1
2014-Oct-21 21:32N 36°08' W 005°22'0 0.1
2014-Oct-21 20:17N 36°08' W 005°22'0 0.0
2014-Oct-21 19:24N 36°08' W 005°22'0 0.1
2014-Oct-21 18:33N 36°08' W 005°22'0 0.2
2014-Oct-21 17:33N 36°08' W 005°22'5 4.7
2014-Oct-21 16:33N 36°04' W 005°19'4 4.3
2014-Oct-21 15:33N 36°00' W 005°17'12310.3
2014-Oct-21 03:33N 34°37' W 007°09'  
2014-Oct-14 17:27N 35°58' W 005°35'9 9.8
2014-Oct-14 16:33N 35°60' W 005°25'8 8.3
2014-Oct-14 15:33N 36°02' W 005°15'49210.7
2014-Oct-12 17:32N 36°54' E 004°53'  
Track history (hours):
 
Tides and Currents Weather Stations Pressure Air Temp Water Temp Dewpoint Dewpoint Depression Visibility Wind Speed Wind Dir Waves Ship Positions

United Tenorio

Last reported at 2014-Oct-21 23:33 UTC. Time now 2014-Oct-24 15:31 UTC.
Position N 36°03' W 005°18'.

Length 174 m; draft 10.9 m.

Type: Cargo ship. MMSI: 636091880.

Date/timePositionNaut miles runAvg speedWind from/ knotsBaromVisibWave heightAir tempDewpointWater temp
2014-Oct-21 23:33N 36°03' W 005°18'6 4.3
2014-Oct-21 22:08N 36°08' W 005°22'0 0.1
2014-Oct-21 21:32N 36°08' W 005°22'0 0.1
2014-Oct-21 20:17N 36°08' W 005°22'0 0.0
2014-Oct-21 19:24N 36°08' W 005°22'0 0.1
2014-Oct-21 18:33N 36°08' W 005°22'0 0.2
2014-Oct-21 17:33N 36°08' W 005°22'5 4.7
2014-Oct-21 16:33N 36°04' W 005°19'4 4.3
2014-Oct-21 15:33N 36°00' W 005°17'12310.3
2014-Oct-21 03:33N 34°37' W 007°09'  
2014-Oct-14 17:27N 35°58' W 005°35'9 9.8
2014-Oct-14 16:33N 35°60' W 005°25'8 8.3
2014-Oct-14 15:33N 36°02' W 005°15'49210.7
2014-Oct-12 17:32N 36°54' E 004°53'  

Dump ship's entire track history